sensor_id;sensor_type;location;lat;lon;timestamp;temperature;humidity
14531;DHT22;7352;50.866;4.366;2022-07-18T00:01:11;22.80;74.60
14531;DHT22;7352;50.866;4.366;2022-07-18T00:03:44;22.90;74.50
14531;DHT22;7352;50.866;4.366;2022-07-18T00:06:12;22.80;74.60
14531;DHT22;7352;50.866;4.366;2022-07-18T00:08:58;22.70;74.50
14531;DHT22;7352;50.866;4.366;2022-07-18T00:11:35;22.80;74.00
14531;DHT22;7352;50.866;4.366;2022-07-18T00:14:08;22.60;74.10
14531;DHT22;7352;50.866;4.366;2022-07-18T00:16:38;22.50;73.70
14531;DHT22;7352;50.866;4.366;2022-07-18T00:19:06;22.60;74.40
14531;DHT22;7352;50.866;4.366;2022-07-18T00:21:34;22.60;73.30
14531;DHT22;7352;50.866;4.366;2022-07-18T00:24:02;22.40;74.20
14531;DHT22;7352;50.866;4.366;2022-07-18T00:26:30;22.40;73.90
14531;DHT22;7352;50.866;4.366;2022-07-18T00:28:59;22.60;73.90
14531;DHT22;7352;50.866;4.366;2022-07-18T00:31:33;22.60;73.50
14531;DHT22;7352;50.866;4.366;2022-07-18T00:34:10;22.60;73.60
14531;DHT22;7352;50.866;4.366;2022-07-18T00:36:42;22.50;74.20
14531;DHT22;7352;50.866;4.366;2022-07-18T00:39:27;22.50;73.50
14531;DHT22;7352;50.866;4.366;2022-07-18T00:41:58;22.50;74.10
14531;DHT22;7352;50.866;4.366;2022-07-18T00:44:30;22.40;74.80
14531;DHT22;7352;50.866;4.366;2022-07-18T00:47:07;22.50;73.90
14531;DHT22;7352;50.866;4.366;2022-07-18T00:49:39;22.40;74.10
14531;DHT22;7352;50.866;4.366;2022-07-18T00:52:27;22.40;74.40
14531;DHT22;7352;50.866;4.366;2022-07-18T00:55:15;22.30;74.30
14531;DHT22;7352;50.866;4.366;2022-07-18T01:01:40;22.10;75.40
14531;DHT22;7352;50.866;4.366;2022-07-18T01:05:34;22.20;75.60
14531;DHT22;7352;50.866;4.366;2022-07-18T01:14:00;21.90;76.40
14531;DHT22;7352;50.866;4.366;2022-07-18T01:16:33;21.90;76.50
14531;DHT22;7352;50.866;4.366;2022-07-18T01:19:17;22.00;76.60
14531;DHT22;7352;50.866;4.366;2022-07-18T01:21:46;21.90;76.70
14531;DHT22;7352;50.866;4.366;2022-07-18T01:24:13;21.80;77.80
14531;DHT22;7352;50.866;4.366;2022-07-18T01:26:42;21.70;77.80
14531;DHT22;7352;50.866;4.366;2022-07-18T01:29:09;21.70;77.90
14531;DHT22;7352;50.866;4.366;2022-07-18T01:31:37;21.70;77.70
14531;DHT22;7352;50.866;4.366;2022-07-18T01:34:05;21.70;78.40
14531;DHT22;7352;50.866;4.366;2022-07-18T01:36:38;21.70;79.80
14531;DHT22;7352;50.866;4.366;2022-07-18T01:39:07;21.50;80.40
14531;DHT22;7352;50.866;4.366;2022-07-18T01:41:36;21.30;81.40
14531;DHT22;7352;50.866;4.366;2022-07-18T01:44:03;21.40;81.00
14531;DHT22;7352;50.866;4.366;2022-07-18T01:46:32;21.40;80.80
14531;DHT22;7352;50.866;4.366;2022-07-18T01:48:59;21.50;81.00
14531;DHT22;7352;50.866;4.366;2022-07-18T01:51:31;21.30;80.70
14531;DHT22;7352;50.866;4.366;2022-07-18T01:54:00;21.40;81.60
14531;DHT22;7352;50.866;4.366;2022-07-18T01:56:29;21.50;80.70
14531;DHT22;7352;50.866;4.366;2022-07-18T01:58:56;21.50;80.70
14531;DHT22;7352;50.866;4.366;2022-07-18T02:01:24;21.40;80.40
14531;DHT22;7352;50.866;4.366;2022-07-18T02:03:51;21.30;80.00
14531;DHT22;7352;50.866;4.366;2022-07-18T02:06:18;21.30;79.80
14531;DHT22;7352;50.866;4.366;2022-07-18T02:08:46;21.30;79.00
14531;DHT22;7352;50.866;4.366;2022-07-18T02:11:13;21.20;79.00
14531;DHT22;7352;50.866;4.366;2022-07-18T02:13:41;21.30;79.00
14531;DHT22;7352;50.866;4.366;2022-07-18T02:16:09;21.30;78.40
14531;DHT22;7352;50.866;4.366;2022-07-18T02:18:36;21.40;78.00
14531;DHT22;7352;50.866;4.366;2022-07-18T02:21:03;21.30;78.30
14531;DHT22;7352;50.866;4.366;2022-07-18T02:23:30;21.20;78.40
14531;DHT22;7352;50.866;4.366;2022-07-18T02:25:57;21.20;78.90
14531;DHT22;7352;50.866;4.366;2022-07-18T02:28:26;21.00;79.50
14531;DHT22;7352;50.866;4.366;2022-07-18T02:30:55;20.90;80.00
14531;DHT22;7352;50.866;4.366;2022-07-18T02:33:23;20.80;80.20
14531;DHT22;7352;50.866;4.366;2022-07-18T02:35:52;21.00;80.00
14531;DHT22;7352;50.866;4.366;2022-07-18T02:38:19;21.10;79.50
14531;DHT22;7352;50.866;4.366;2022-07-18T02:40:46;21.20;78.80
14531;DHT22;7352;50.866;4.366;2022-07-18T02:43:13;21.20;78.60
14531;DHT22;7352;50.866;4.366;2022-07-18T02:45:42;21.10;79.30
14531;DHT22;7352;50.866;4.366;2022-07-18T02:48:10;21.10;79.50
14531;DHT22;7352;50.866;4.366;2022-07-18T02:50:37;21.00;79.00
14531;DHT22;7352;50.866;4.366;2022-07-18T02:53:06;20.70;79.80
14531;DHT22;7352;50.866;4.366;2022-07-18T02:55:34;20.80;79.80
14531;DHT22;7352;50.866;4.366;2022-07-18T02:58:01;20.90;79.90
14531;DHT22;7352;50.866;4.366;2022-07-18T03:00:28;21.00;79.00
14531;DHT22;7352;50.866;4.366;2022-07-18T03:02:56;21.00;78.60
14531;DHT22;7352;50.866;4.366;2022-07-18T03:05:24;20.90;78.90
14531;DHT22;7352;50.866;4.366;2022-07-18T03:07:51;20.80;79.10
14531;DHT22;7352;50.866;4.366;2022-07-18T03:10:18;20.70;79.40
14531;DHT22;7352;50.866;4.366;2022-07-18T03:12:45;20.60;79.70
14531;DHT22;7352;50.866;4.366;2022-07-18T03:15:13;20.60;80.10
14531;DHT22;7352;50.866;4.366;2022-07-18T03:17:40;20.80;79.80
14531;DHT22;7352;50.866;4.366;2022-07-18T03:20:08;21.10;79.30
14531;DHT22;7352;50.866;4.366;2022-07-18T03:22:37;21.00;79.50
14531;DHT22;7352;50.866;4.366;2022-07-18T03:25:04;21.20;78.90
14531;DHT22;7352;50.866;4.366;2022-07-18T03:27:31;21.00;79.20
14531;DHT22;7352;50.866;4.366;2022-07-18T03:29:59;21.20;78.70
14531;DHT22;7352;50.866;4.366;2022-07-18T03:32:26;21.10;78.60
14531;DHT22;7352;50.866;4.366;2022-07-18T03:34:54;21.00;79.20
14531;DHT22;7352;50.866;4.366;2022-07-18T03:37:21;21.10;78.20
14531;DHT22;7352;50.866;4.366;2022-07-18T03:39:50;20.80;79.40
14531;DHT22;7352;50.866;4.366;2022-07-18T03:42:17;20.70;79.10
14531;DHT22;7352;50.866;4.366;2022-07-18T03:44:44;20.60;79.20
14531;DHT22;7352;50.866;4.366;2022-07-18T03:47:11;20.70;79.60
14531;DHT22;7352;50.866;4.366;2022-07-18T03:49:38;20.90;79.50
14531;DHT22;7352;50.866;4.366;2022-07-18T03:52:05;20.90;79.40
14531;DHT22;7352;50.866;4.366;2022-07-18T03:54:32;20.90;79.20
14531;DHT22;7352;50.866;4.366;2022-07-18T03:57:01;20.90;79.50
14531;DHT22;7352;50.866;4.366;2022-07-18T03:59:30;20.80;79.80
14531;DHT22;7352;50.866;4.366;2022-07-18T04:01:59;20.70;80.90
14531;DHT22;7352;50.866;4.366;2022-07-18T04:04:26;20.60;82.10
14531;DHT22;7352;50.866;4.366;2022-07-18T04:06:53;20.50;83.20
14531;DHT22;7352;50.866;4.366;2022-07-18T04:09:24;20.20;84.60
14531;DHT22;7352;50.866;4.366;2022-07-18T04:11:51;20.30;84.70
14531;DHT22;7352;50.866;4.366;2022-07-18T04:14:21;20.30;85.10
14531;DHT22;7352;50.866;4.366;2022-07-18T04:16:49;20.20;85.90
14531;DHT22;7352;50.866;4.366;2022-07-18T04:19:16;20.20;85.30
14531;DHT22;7352;50.866;4.366;2022-07-18T04:21:45;20.10;85.30
14531;DHT22;7352;50.866;4.366;2022-07-18T04:24:12;20.00;85.70
14531;DHT22;7352;50.866;4.366;2022-07-18T04:26:39;20.10;86.70
14531;DHT22;7352;50.866;4.366;2022-07-18T04:29:07;20.30;86.40
14531;DHT22;7352;50.866;4.366;2022-07-18T04:31:35;20.30;86.50
14531;DHT22;7352;50.866;4.366;2022-07-18T04:34:05;20.40;86.40
14531;DHT22;7352;50.866;4.366;2022-07-18T04:36:32;20.30;86.80
14531;DHT22;7352;50.866;4.366;2022-07-18T04:39:00;20.40;86.70
14531;DHT22;7352;50.866;4.366;2022-07-18T04:41:27;20.50;86.30
14531;DHT22;7352;50.866;4.366;2022-07-18T04:43:54;20.50;86.10
14531;DHT22;7352;50.866;4.366;2022-07-18T04:46:21;20.50;86.50
14531;DHT22;7352;50.866;4.366;2022-07-18T04:48:52;20.30;86.70
14531;DHT22;7352;50.866;4.366;2022-07-18T04:51:19;20.40;87.10
14531;DHT22;7352;50.866;4.366;2022-07-18T04:53:47;20.60;86.30
14531;DHT22;7352;50.866;4.366;2022-07-18T04:56:15;20.60;86.00
14531;DHT22;7352;50.866;4.366;2022-07-18T04:58:43;20.80;85.50
14531;DHT22;7352;50.866;4.366;2022-07-18T05:01:11;20.90;86.00
14531;DHT22;7352;50.866;4.366;2022-07-18T05:03:39;20.90;87.30
14531;DHT22;7352;50.866;4.366;2022-07-18T05:06:12;20.80;87.50
14531;DHT22;7352;50.866;4.366;2022-07-18T05:08:40;20.90;88.40
14531;DHT22;7352;50.866;4.366;2022-07-18T05:11:08;20.90;88.40
14531;DHT22;7352;50.866;4.366;2022-07-18T05:13:35;20.90;88.40
14531;DHT22;7352;50.866;4.366;2022-07-18T05:16:12;21.00;88.50
14531;DHT22;7352;50.866;4.366;2022-07-18T05:18:39;21.30;87.70
14531;DHT22;7352;50.866;4.366;2022-07-18T05:21:07;21.50;87.70
14531;DHT22;7352;50.866;4.366;2022-07-18T05:23:36;21.60;87.10
14531;DHT22;7352;50.866;4.366;2022-07-18T05:26:03;21.80;86.30
14531;DHT22;7352;50.866;4.366;2022-07-18T05:28:31;22.00;86.40
14531;DHT22;7352;50.866;4.366;2022-07-18T05:30:58;22.10;86.00
14531;DHT22;7352;50.866;4.366;2022-07-18T05:33:25;21.80;86.30
14531;DHT22;7352;50.866;4.366;2022-07-18T05:35:54;21.90;86.50
14531;DHT22;7352;50.866;4.366;2022-07-18T05:38:21;22.00;87.00
14531;DHT22;7352;50.866;4.366;2022-07-18T05:40:51;22.00;85.70
14531;DHT22;7352;50.866;4.366;2022-07-18T05:43:18;22.10;85.50
14531;DHT22;7352;50.866;4.366;2022-07-18T05:45:45;22.00;85.10
14531;DHT22;7352;50.866;4.366;2022-07-18T05:48:12;22.10;85.10
14531;DHT22;7352;50.866;4.366;2022-07-18T05:50:41;22.00;85.40
14531;DHT22;7352;50.866;4.366;2022-07-18T05:53:09;22.10;85.60
14531;DHT22;7352;50.866;4.366;2022-07-18T05:55:37;22.20;84.80
14531;DHT22;7352;50.866;4.366;2022-07-18T05:58:06;22.50;84.40
14531;DHT22;7352;50.866;4.366;2022-07-18T06:00:34;22.60;83.00
14531;DHT22;7352;50.866;4.366;2022-07-18T06:03:01;22.80;82.10
14531;DHT22;7352;50.866;4.366;2022-07-18T06:05:28;22.90;81.30
14531;DHT22;7352;50.866;4.366;2022-07-18T06:08:00;22.90;80.70
14531;DHT22;7352;50.866;4.366;2022-07-18T06:10:29;23.10;81.00
14531;DHT22;7352;50.866;4.366;2022-07-18T06:12:56;23.10;78.70
14531;DHT22;7352;50.866;4.366;2022-07-18T06:15:25;23.40;78.40
14531;DHT22;7352;50.866;4.366;2022-07-18T06:17:54;23.60;74.80
14531;DHT22;7352;50.866;4.366;2022-07-18T06:20:22;23.90;75.00
14531;DHT22;7352;50.866;4.366;2022-07-18T06:22:50;23.80;73.20
14531;DHT22;7352;50.866;4.366;2022-07-18T06:25:19;23.90;71.80
14531;DHT22;7352;50.866;4.366;2022-07-18T06:27:46;24.10;71.80
14531;DHT22;7352;50.866;4.366;2022-07-18T06:30:13;24.30;72.00
14531;DHT22;7352;50.866;4.366;2022-07-18T06:32:42;24.30;71.00
14531;DHT22;7352;50.866;4.366;2022-07-18T06:35:09;24.40;70.00
14531;DHT22;7352;50.866;4.366;2022-07-18T06:37:37;24.40;69.70
14531;DHT22;7352;50.866;4.366;2022-07-18T06:40:08;24.40;68.70
14531;DHT22;7352;50.866;4.366;2022-07-18T06:42:35;24.50;69.00
14531;DHT22;7352;50.866;4.366;2022-07-18T06:45:03;24.60;69.60
14531;DHT22;7352;50.866;4.366;2022-07-18T06:47:31;24.50;68.60
14531;DHT22;7352;50.866;4.366;2022-07-18T06:50:09;24.60;67.80
14531;DHT22;7352;50.866;4.366;2022-07-18T06:52:37;24.90;67.90
14531;DHT22;7352;50.866;4.366;2022-07-18T06:55:07;24.90;67.00
14531;DHT22;7352;50.866;4.366;2022-07-18T06:57:34;24.90;66.90
14531;DHT22;7352;50.866;4.366;2022-07-18T07:00:02;25.20;66.40
14531;DHT22;7352;50.866;4.366;2022-07-18T07:02:30;25.30;66.80
14531;DHT22;7352;50.866;4.366;2022-07-18T07:04:57;25.40;66.50
14531;DHT22;7352;50.866;4.366;2022-07-18T07:07:26;25.60;66.20
14531;DHT22;7352;50.866;4.366;2022-07-18T07:09:54;25.60;65.70
14531;DHT22;7352;50.866;4.366;2022-07-18T07:12:22;25.60;65.30
14531;DHT22;7352;50.866;4.366;2022-07-18T07:14:49;25.70;65.90
14531;DHT22;7352;50.866;4.366;2022-07-18T07:17:16;25.70;65.60
14531;DHT22;7352;50.866;4.366;2022-07-18T07:19:44;25.90;65.40
14531;DHT22;7352;50.866;4.366;2022-07-18T07:22:12;25.90;64.50
14531;DHT22;7352;50.866;4.366;2022-07-18T07:24:41;26.00;63.90
14531;DHT22;7352;50.866;4.366;2022-07-18T07:27:08;26.00;64.00
14531;DHT22;7352;50.866;4.366;2022-07-18T07:29:35;26.10;64.20
14531;DHT22;7352;50.866;4.366;2022-07-18T07:32:02;26.20;64.70
14531;DHT22;7352;50.866;4.366;2022-07-18T07:34:32;26.20;63.90
14531;DHT22;7352;50.866;4.366;2022-07-18T07:36:59;26.40;63.70
14531;DHT22;7352;50.866;4.366;2022-07-18T07:39:26;26.50;63.60
14531;DHT22;7352;50.866;4.366;2022-07-18T07:41:55;26.60;62.10
14531;DHT22;7352;50.866;4.366;2022-07-18T07:44:23;26.50;60.90
14531;DHT22;7352;50.866;4.366;2022-07-18T07:46:51;26.60;60.70
14531;DHT22;7352;50.866;4.366;2022-07-18T07:49:18;26.60;61.10
14531;DHT22;7352;50.866;4.366;2022-07-18T07:51:45;26.70;60.50
14531;DHT22;7352;50.866;4.366;2022-07-18T07:54:12;26.80;59.30
14531;DHT22;7352;50.866;4.366;2022-07-18T07:56:41;26.80;59.60
14531;DHT22;7352;50.866;4.366;2022-07-18T07:59:10;26.90;60.30
14531;DHT22;7352;50.866;4.366;2022-07-18T08:01:37;26.90;60.30
14531;DHT22;7352;50.866;4.366;2022-07-18T08:04:10;26.90;59.80
14531;DHT22;7352;50.866;4.366;2022-07-18T08:06:37;26.80;60.10
14531;DHT22;7352;50.866;4.366;2022-07-18T08:09:04;26.90;60.80
14531;DHT22;7352;50.866;4.366;2022-07-18T08:11:34;27.00;60.80
14531;DHT22;7352;50.866;4.366;2022-07-18T08:14:00;27.10;61.10
14531;DHT22;7352;50.866;4.366;2022-07-18T08:16:29;27.10;61.20
14531;DHT22;7352;50.866;4.366;2022-07-18T08:18:56;27.10;61.30
14531;DHT22;7352;50.866;4.366;2022-07-18T08:21:23;27.20;60.90
14531;DHT22;7352;50.866;4.366;2022-07-18T08:23:50;27.30;60.90
14531;DHT22;7352;50.866;4.366;2022-07-18T08:26:17;27.40;60.30
14531;DHT22;7352;50.866;4.366;2022-07-18T08:28:44;27.50;60.30
14531;DHT22;7352;50.866;4.366;2022-07-18T08:31:11;27.60;60.00
14531;DHT22;7352;50.866;4.366;2022-07-18T08:33:42;27.80;60.20
14531;DHT22;7352;50.866;4.366;2022-07-18T08:36:09;27.80;59.80
14531;DHT22;7352;50.866;4.366;2022-07-18T08:38:36;27.80;60.20
14531;DHT22;7352;50.866;4.366;2022-07-18T08:41:04;27.90;59.90
14531;DHT22;7352;50.866;4.366;2022-07-18T08:43:31;28.00;59.60
14531;DHT22;7352;50.866;4.366;2022-07-18T08:46:02;28.00;59.50
14531;DHT22;7352;50.866;4.366;2022-07-18T08:48:30;28.20;59.90
14531;DHT22;7352;50.866;4.366;2022-07-18T08:51:00;28.30;59.50
14531;DHT22;7352;50.866;4.366;2022-07-18T08:53:28;28.40;59.80
14531;DHT22;7352;50.866;4.366;2022-07-18T08:55:55;28.50;59.10
14531;DHT22;7352;50.866;4.366;2022-07-18T08:58:22;28.50;58.70
14531;DHT22;7352;50.866;4.366;2022-07-18T09:00:50;28.60;58.80
14531;DHT22;7352;50.866;4.366;2022-07-18T09:03:17;28.60;58.40
14531;DHT22;7352;50.866;4.366;2022-07-18T09:05:44;28.70;59.10
14531;DHT22;7352;50.866;4.366;2022-07-18T09:08:15;28.70;59.40
14531;DHT22;7352;50.866;4.366;2022-07-18T09:10:50;28.80;58.60
14531;DHT22;7352;50.866;4.366;2022-07-18T09:13:19;29.00;58.40
14531;DHT22;7352;50.866;4.366;2022-07-18T09:16:03;28.90;58.00
14531;DHT22;7352;50.866;4.366;2022-07-18T09:18:32;29.10;57.80
14531;DHT22;7352;50.866;4.366;2022-07-18T09:21:03;29.10;57.50
14531;DHT22;7352;50.866;4.366;2022-07-18T09:23:34;29.00;56.90
14531;DHT22;7352;50.866;4.366;2022-07-18T09:26:02;29.10;56.60
14531;DHT22;7352;50.866;4.366;2022-07-18T09:28:45;29.20;56.40
14531;DHT22;7352;50.866;4.366;2022-07-18T09:31:17;29.40;56.20
14531;DHT22;7352;50.866;4.366;2022-07-18T09:33:57;29.40;56.40
14531;DHT22;7352;50.866;4.366;2022-07-18T09:36:25;29.60;55.90
14531;DHT22;7352;50.866;4.366;2022-07-18T09:38:53;29.50;55.70
14531;DHT22;7352;50.866;4.366;2022-07-18T09:41:24;29.40;55.20
14531;DHT22;7352;50.866;4.366;2022-07-18T09:43:53;29.60;55.60
14531;DHT22;7352;50.866;4.366;2022-07-18T09:46:20;29.60;55.50
14531;DHT22;7352;50.866;4.366;2022-07-18T09:48:47;29.70;55.80
14531;DHT22;7352;50.866;4.366;2022-07-18T09:51:15;29.90;55.90
14531;DHT22;7352;50.866;4.366;2022-07-18T09:53:44;30.10;55.30
14531;DHT22;7352;50.866;4.366;2022-07-18T09:56:23;30.10;55.20
14531;DHT22;7352;50.866;4.366;2022-07-18T09:58:52;30.10;54.90
14531;DHT22;7352;50.866;4.366;2022-07-18T10:01:20;30.00;55.10
14531;DHT22;7352;50.866;4.366;2022-07-18T10:03:47;29.90;55.10
14531;DHT22;7352;50.866;4.366;2022-07-18T10:06:15;30.00;53.90
14531;DHT22;7352;50.866;4.366;2022-07-18T10:08:44;30.10;54.40
14531;DHT22;7352;50.866;4.366;2022-07-18T10:11:12;30.20;54.20
14531;DHT22;7352;50.866;4.366;2022-07-18T10:13:42;30.20;54.00
14531;DHT22;7352;50.866;4.366;2022-07-18T10:16:14;30.40;53.80
14531;DHT22;7352;50.866;4.366;2022-07-18T10:18:43;30.50;51.80
14531;DHT22;7352;50.866;4.366;2022-07-18T10:21:13;30.50;52.70
14531;DHT22;7352;50.866;4.366;2022-07-18T10:23:48;30.60;52.30
14531;DHT22;7352;50.866;4.366;2022-07-18T10:26:21;30.70;51.70
14531;DHT22;7352;50.866;4.366;2022-07-18T10:29:16;30.80;51.90
14531;DHT22;7352;50.866;4.366;2022-07-18T10:31:59;31.00;51.70
14531;DHT22;7352;50.866;4.366;2022-07-18T10:34:32;31.00;51.00
14531;DHT22;7352;50.866;4.366;2022-07-18T10:37:13;31.20;51.70
14531;DHT22;7352;50.866;4.366;2022-07-18T10:39:42;31.30;51.10
14531;DHT22;7352;50.866;4.366;2022-07-18T10:42:15;31.30;50.70
14531;DHT22;7352;50.866;4.366;2022-07-18T10:44:50;31.20;50.60
14531;DHT22;7352;50.866;4.366;2022-07-18T10:47:19;31.50;50.00
14531;DHT22;7352;50.866;4.366;2022-07-18T10:50:06;31.60;49.30
14531;DHT22;7352;50.866;4.366;2022-07-18T10:52:59;31.60;49.50
14531;DHT22;7352;50.866;4.366;2022-07-18T10:55:30;31.80;50.40
14531;DHT22;7352;50.866;4.366;2022-07-18T10:58:18;31.70;49.90
14531;DHT22;7352;50.866;4.366;2022-07-18T11:00:49;31.60;49.80
14531;DHT22;7352;50.866;4.366;2022-07-18T11:03:26;31.80;49.90
14531;DHT22;7352;50.866;4.366;2022-07-18T11:05:54;31.70;49.40
14531;DHT22;7352;50.866;4.366;2022-07-18T11:08:22;31.60;49.40
14531;DHT22;7352;50.866;4.366;2022-07-18T11:11:09;31.60;49.50
14531;DHT22;7352;50.866;4.366;2022-07-18T11:13:37;31.70;49.20
14531;DHT22;7352;50.866;4.366;2022-07-18T11:16:09;31.80;48.70
14531;DHT22;7352;50.866;4.366;2022-07-18T11:21:37;32.00;48.40
14531;DHT22;7352;50.866;4.366;2022-07-18T11:24:06;32.10;48.00
14531;DHT22;7352;50.866;4.366;2022-07-18T11:26:35;32.30;47.90
14531;DHT22;7352;50.866;4.366;2022-07-18T11:29:04;32.10;48.00
14531;DHT22;7352;50.866;4.366;2022-07-18T11:31:42;32.10;48.60
14531;DHT22;7352;50.866;4.366;2022-07-18T11:34:10;32.20;48.40
14531;DHT22;7352;50.866;4.366;2022-07-18T11:36:39;32.20;47.90
14531;DHT22;7352;50.866;4.366;2022-07-18T11:39:09;32.30;47.80
14531;DHT22;7352;50.866;4.366;2022-07-18T11:41:38;32.30;48.40
14531;DHT22;7352;50.866;4.366;2022-07-18T11:44:16;32.40;47.20
14531;DHT22;7352;50.866;4.366;2022-07-18T11:46:48;32.40;47.00
14531;DHT22;7352;50.866;4.366;2022-07-18T11:49:16;32.50;47.00
14531;DHT22;7352;50.866;4.366;2022-07-18T11:51:44;32.40;47.10
14531;DHT22;7352;50.866;4.366;2022-07-18T11:54:22;32.40;46.90
14531;DHT22;7352;50.866;4.366;2022-07-18T11:56:52;32.40;46.20
14531;DHT22;7352;50.866;4.366;2022-07-18T11:59:20;32.30;46.40
14531;DHT22;7352;50.866;4.366;2022-07-18T12:01:50;32.50;46.30
14531;DHT22;7352;50.866;4.366;2022-07-18T12:04:22;32.70;46.80
14531;DHT22;7352;50.866;4.366;2022-07-18T12:07:14;32.70;46.50
14531;DHT22;7352;50.866;4.366;2022-07-18T12:09:44;32.90;45.60
14531;DHT22;7352;50.866;4.366;2022-07-18T12:12:13;33.00;45.80
14531;DHT22;7352;50.866;4.366;2022-07-18T12:14:41;33.00;45.80
14531;DHT22;7352;50.866;4.366;2022-07-18T12:17:11;33.00;45.20
14531;DHT22;7352;50.866;4.366;2022-07-18T12:19:39;33.00;44.40
14531;DHT22;7352;50.866;4.366;2022-07-18T12:22:09;33.10;44.10
14531;DHT22;7352;50.866;4.366;2022-07-18T12:24:39;33.20;45.50
14531;DHT22;7352;50.866;4.366;2022-07-18T12:27:17;33.30;44.40
14531;DHT22;7352;50.866;4.366;2022-07-18T12:30:07;33.30;44.10
14531;DHT22;7352;50.866;4.366;2022-07-18T12:32:44;33.40;44.80
14531;DHT22;7352;50.866;4.366;2022-07-18T12:35:19;33.50;45.10
14531;DHT22;7352;50.866;4.366;2022-07-18T12:37:56;33.70;44.30
14531;DHT22;7352;50.866;4.366;2022-07-18T12:40:24;33.60;44.30
14531;DHT22;7352;50.866;4.366;2022-07-18T12:43:05;33.70;44.30
14531;DHT22;7352;50.866;4.366;2022-07-18T12:45:33;33.80;43.40
14531;DHT22;7352;50.866;4.366;2022-07-18T12:48:02;33.80;43.30
14531;DHT22;7352;50.866;4.366;2022-07-18T12:50:29;33.90;42.90
14531;DHT22;7352;50.866;4.366;2022-07-18T12:52:56;33.90;42.60
14531;DHT22;7352;50.866;4.366;2022-07-18T12:55:23;33.90;43.00
14531;DHT22;7352;50.866;4.366;2022-07-18T12:57:50;33.90;42.50
14531;DHT22;7352;50.866;4.366;2022-07-18T13:00:17;33.90;42.70
14531;DHT22;7352;50.866;4.366;2022-07-18T13:02:45;34.00;42.90
14531;DHT22;7352;50.866;4.366;2022-07-18T13:05:14;34.30;42.40
14531;DHT22;7352;50.866;4.366;2022-07-18T13:07:41;34.30;42.50
14531;DHT22;7352;50.866;4.366;2022-07-18T13:10:09;34.30;42.50
14531;DHT22;7352;50.866;4.366;2022-07-18T13:12:36;34.30;42.80
14531;DHT22;7352;50.866;4.366;2022-07-18T13:15:04;34.40;42.60
14531;DHT22;7352;50.866;4.366;2022-07-18T13:17:32;34.40;42.20
14531;DHT22;7352;50.866;4.366;2022-07-18T13:19:59;34.60;43.20
14531;DHT22;7352;50.866;4.366;2022-07-18T13:22:27;34.60;43.00
14531;DHT22;7352;50.866;4.366;2022-07-18T13:24:57;34.50;42.40
14531;DHT22;7352;50.866;4.366;2022-07-18T13:27:24;34.40;42.70
14531;DHT22;7352;50.866;4.366;2022-07-18T13:29:51;34.60;42.80
14531;DHT22;7352;50.866;4.366;2022-07-18T13:32:18;34.70;42.50
14531;DHT22;7352;50.866;4.366;2022-07-18T13:34:45;34.90;42.10
14531;DHT22;7352;50.866;4.366;2022-07-18T13:37:12;34.80;42.50
14531;DHT22;7352;50.866;4.366;2022-07-18T13:39:41;34.90;42.40
14531;DHT22;7352;50.866;4.366;2022-07-18T13:42:08;35.10;42.80
14531;DHT22;7352;50.866;4.366;2022-07-18T13:44:35;34.90;42.20
14531;DHT22;7352;50.866;4.366;2022-07-18T13:47:02;34.90;42.10
14531;DHT22;7352;50.866;4.366;2022-07-18T13:49:29;35.10;43.10
14531;DHT22;7352;50.866;4.366;2022-07-18T13:51:56;35.30;42.40
14531;DHT22;7352;50.866;4.366;2022-07-18T13:54:23;35.60;42.30
14531;DHT22;7352;50.866;4.366;2022-07-18T13:56:53;35.70;43.20
14531;DHT22;7352;50.866;4.366;2022-07-18T13:59:20;35.80;41.10
14531;DHT22;7352;50.866;4.366;2022-07-18T14:01:47;35.90;40.90
14531;DHT22;7352;50.866;4.366;2022-07-18T14:04:15;35.90;40.90
14531;DHT22;7352;50.866;4.366;2022-07-18T14:06:42;36.00;41.10
14531;DHT22;7352;50.866;4.366;2022-07-18T14:09:09;36.00;40.70
14531;DHT22;7352;50.866;4.366;2022-07-18T14:11:36;36.10;41.40
14531;DHT22;7352;50.866;4.366;2022-07-18T14:14:05;36.20;40.60
14531;DHT22;7352;50.866;4.366;2022-07-18T14:16:32;36.20;40.50
14531;DHT22;7352;50.866;4.366;2022-07-18T14:18:59;36.40;40.80
14531;DHT22;7352;50.866;4.366;2022-07-18T14:21:26;36.60;41.10
14531;DHT22;7352;50.866;4.366;2022-07-18T14:23:58;36.80;41.40
14531;DHT22;7352;50.866;4.366;2022-07-18T14:26:25;37.00;41.90
14531;DHT22;7352;50.866;4.366;2022-07-18T14:28:52;37.00;41.00
14531;DHT22;7352;50.866;4.366;2022-07-18T14:31:21;37.20;40.80
14531;DHT22;7352;50.866;4.366;2022-07-18T14:33:48;37.10;40.10
14531;DHT22;7352;50.866;4.366;2022-07-18T14:36:15;37.30;39.90
14531;DHT22;7352;50.866;4.366;2022-07-18T14:38:46;37.20;39.50
14531;DHT22;7352;50.866;4.366;2022-07-18T14:41:19;37.20;40.40
14531;DHT22;7352;50.866;4.366;2022-07-18T14:43:47;37.40;39.60
14531;DHT22;7352;50.866;4.366;2022-07-18T14:46:15;37.30;39.00
14531;DHT22;7352;50.866;4.366;2022-07-18T14:48:50;37.30;39.50
14531;DHT22;7352;50.866;4.366;2022-07-18T14:51:18;37.50;39.80
14531;DHT22;7352;50.866;4.366;2022-07-18T14:53:45;37.80;38.70
14531;DHT22;7352;50.866;4.366;2022-07-18T14:56:13;38.30;39.20
14531;DHT22;7352;50.866;4.366;2022-07-18T14:58:40;38.30;37.30
14531;DHT22;7352;50.866;4.366;2022-07-18T15:01:08;38.50;37.40
14531;DHT22;7352;50.866;4.366;2022-07-18T15:03:37;38.50;37.70
14531;DHT22;7352;50.866;4.366;2022-07-18T15:06:08;38.40;37.60
14531;DHT22;7352;50.866;4.366;2022-07-18T15:08:36;38.40;37.10
14531;DHT22;7352;50.866;4.366;2022-07-18T15:11:06;38.90;37.80
14531;DHT22;7352;50.866;4.366;2022-07-18T15:13:52;39.10;36.90
14531;DHT22;7352;50.866;4.366;2022-07-18T15:16:34;39.10;37.10
14531;DHT22;7352;50.866;4.366;2022-07-18T15:19:07;39.40;36.60
14531;DHT22;7352;50.866;4.366;2022-07-18T15:21:49;39.90;36.90
14531;DHT22;7352;50.866;4.366;2022-07-18T15:24:17;40.40;36.30
14531;DHT22;7352;50.866;4.366;2022-07-18T15:26:50;40.40;34.50
14531;DHT22;7352;50.866;4.366;2022-07-18T15:29:26;40.60;35.60
14531;DHT22;7352;50.866;4.366;2022-07-18T15:32:02;40.90;35.60
14531;DHT22;7352;50.866;4.366;2022-07-18T15:34:38;41.20;35.30
14531;DHT22;7352;50.866;4.366;2022-07-18T15:37:07;41.40;34.50
14531;DHT22;7352;50.866;4.366;2022-07-18T15:39:34;41.80;34.90
14531;DHT22;7352;50.866;4.366;2022-07-18T15:42:03;41.90;34.30
14531;DHT22;7352;50.866;4.366;2022-07-18T15:44:31;41.80;34.90
14531;DHT22;7352;50.866;4.366;2022-07-18T15:47:03;41.80;34.50
14531;DHT22;7352;50.866;4.366;2022-07-18T15:49:32;41.90;34.80
14531;DHT22;7352;50.866;4.366;2022-07-18T15:52:00;42.10;35.20
14531;DHT22;7352;50.866;4.366;2022-07-18T15:54:30;42.30;34.70
14531;DHT22;7352;50.866;4.366;2022-07-18T15:56:58;42.70;34.30
14531;DHT22;7352;50.866;4.366;2022-07-18T15:59:25;43.20;34.00
14531;DHT22;7352;50.866;4.366;2022-07-18T16:01:53;43.50;34.30
14531;DHT22;7352;50.866;4.366;2022-07-18T16:04:20;43.70;33.20
14531;DHT22;7352;50.866;4.366;2022-07-18T16:06:47;44.10;33.00
14531;DHT22;7352;50.866;4.366;2022-07-18T16:09:15;43.90;32.20
14531;DHT22;7352;50.866;4.366;2022-07-18T16:11:44;44.00;32.50
14531;DHT22;7352;50.866;4.366;2022-07-18T16:14:12;44.20;33.10